Station Historical Data
Daily Summary for December 1, 2017 Units:  Metric    English   Both
Next Day »
Daily Weekly Monthly Yearly Custom
  High: Low: Average:
Temperature: 12.6 °C 5.7 °C 8.2 °C
Dew Point: 6.8 °C 0.3 °C 3.4 °C
Humidity: 88% 57% 72%
Wind Speed: 24.1km/h 0km/h 2.4km/h
Wind Gust: 25.7km/h - -
Wind- - ESE
Pressure: 1021.6 hPa 1019.2 hPa -
Precipitation: 0 mm    
Historical Graphs
 
 
Tabular Data for December 1, 2017
Time Temperature Dew Point Pressure Wind Wind Speed Wind Gust Humidity Rainfall Rate (Hourly) solar Conditions
00:04 7.6 °C 3.4 °C 1021.2 hPa Calm     75% 0 mm 0.00 W/m2
00:09 7.5 °C 3.3 °C 1021.2 hPa Calm     75% 0 mm 0.00 W/m2
00:14 7.5 °C 3.6 °C 1021.2 hPa East 3.2 km/h 6.4 km/h 76% 0 mm 0.00 W/m2
00:19 7.5 °C 3.6 °C 1021.2 hPa Calm   4.8 km/h 76% 0 mm 0.00 W/m2
00:24 7.4 °C 2.9 °C 1021.2 hPa Calm   4.8 km/h 73% 0 mm 0.00 W/m2
00:30 7.3 °C 3.2 °C 1021.2 hPa East 8 km/h 8 km/h 75% 0 mm 0.00 W/m2
00:35 7.3 °C 2.8 °C 1020.9 hPa East 6.4 km/h 9.7 km/h 73% 0 mm 0.00 W/m2
00:40 7.3 °C 2.6 °C 1020.9 hPa East 8 km/h 12.9 km/h 72% 0 mm 0.00 W/m2
00:45 7.3 °C 2.6 °C 1020.9 hPa East 8 km/h 11.3 km/h 72% 0 mm 0.00 W/m2
00:50 7.3 °C 2.8 °C 1020.9 hPa East 14.5 km/h 14.5 km/h 73% 0 mm 0.00 W/m2
00:55 7.3 °C 2.6 °C 1021.2 hPa East 9.7 km/h 17.7 km/h 72% 0 mm 0.00 W/m2
01:00 7.3 °C 2.4 °C 1021.2 hPa ESE 9.7 km/h 14.5 km/h 71% 0 mm 0.00 W/m2
01:05 7.3 °C 2.4 °C 1020.9 hPa ESE 3.2 km/h 19.3 km/h 71% 0 mm 0.00 W/m2
01:10 7.3 °C 2.6 °C 1020.9 hPa East 14.5 km/h 14.5 km/h 72% 0 mm 0.00 W/m2
01:15 7.2 °C 2.3 °C 1020.9 hPa Calm   19.3 km/h 71% 0 mm 0.00 W/m2
01:25 7.2 °C 1.9 °C 1020.5 hPa ESE 14.5 km/h 19.3 km/h 69% 0 mm 0.00 W/m2
01:30 7.2 °C 2.1 °C 1020.5 hPa Calm     70% 0 mm 0.00 W/m2
01:35 7.2 °C 2.1 °C 1020.5 hPa East 6.4 km/h 22.5 km/h 70% 0 mm 0.00 W/m2
01:40 7.2 °C 1.9 °C 1020.2 hPa Calm   22.5 km/h 69% 0 mm 0.00 W/m2
01:45 7.2 °C 1.5 °C 1020.2 hPa East 1.6 km/h 20.9 km/h 67% 0 mm 0.00 W/m2
01:50 7.2 °C 1.7 °C 1020.5 hPa Calm   20.9 km/h 68% 0 mm 0.00 W/m2
01:55 7.2 °C 1.7 °C 1020.5 hPa East 6.4 km/h 20.9 km/h 68% 0 mm 0.00 W/m2
02:00 7.2 °C 1.9 °C 1020.5 hPa Calm   20.9 km/h 69% 0 mm 0.00 W/m2
02:05 7.2 °C 1.7 °C 1020.5 hPa Calm   14.5 km/h 68% 0 mm 0.00 W/m2
02:10 7.2 °C 1.4 °C 1020.9 hPa ESE 6.4 km/h 14.5 km/h 67% 0 mm 0.00 W/m2
02:15 7.2 °C 1.4 °C 1020.9 hPa Calm   17.7 km/h 67% 0 mm 0.00 W/m2
02:16 7.2 °C 1.2 °C 1020.9 hPa Calm     66% 0 mm 0.00 W/m2
02:21 7.2 °C 1.2 °C 1020.5 hPa Calm     66% 0 mm 0.00 W/m2
02:26 7.2 °C 1.2 °C 1020.9 hPa Calm     66% 0 mm 0.00 W/m2
02:36 7.2 °C 1.4 °C 1020.9 hPa Calm   11.3 km/h 67% 0 mm 0.00 W/m2
02:41 7.1 °C 1.4 °C 1020.9 hPa Calm   9.7 km/h 67% 0 mm 0.00 W/m2
02:46 7.1 °C 1.4 °C 1020.9 hPa Calm   6.4 km/h 67% 0 mm 0.00 W/m2
02:51 7.1 °C 1.6 °C 1020.9 hPa Calm   20.9 km/h 68% 0 mm 0.00 W/m2
02:56 7.1 °C 1.1 °C 1020.5 hPa ESE 1.6 km/h 9.7 km/h 66% 0 mm 0.00 W/m2
03:06 7 °C 1.5 °C 1020.5 hPa East 3.2 km/h 19.3 km/h 68% 0 mm 0.00 W/m2
03:11 7 °C 1.7 °C 1020.5 hPa Calm   9.7 km/h 69% 0 mm 0.00 W/m2
03:16 6.9 °C 1.2 °C 1020.5 hPa ESE 6.4 km/h 20.9 km/h 67% 0 mm 0.00 W/m2
03:21 6.9 °C 1.1 °C 1020.5 hPa Calm   17.7 km/h 66% 0 mm 0.00 W/m2
03:26 6.9 °C 1.2 °C 1020.5 hPa Calm     67% 0 mm 0.00 W/m2
03:31 6.9 °C 1.2 °C 1020.5 hPa Calm   11.3 km/h 67% 0 mm 0.00 W/m2
03:36 6.9 °C 1.4 °C 1020.5 hPa Calm   9.7 km/h 68% 0 mm 0.00 W/m2
03:41 6.9 °C 1.4 °C 1020.5 hPa Calm   17.7 km/h 68% 0 mm 0.00 W/m2
03:56 6.8 °C 1.3 °C 1020.2 hPa Calm   11.3 km/h 68% 0 mm 0.00 W/m2
04:01 6.7 °C 1.2 °C 1020.2 hPa Calm     68% 0 mm 0.00 W/m2
04:06 6.7 °C 1.1 °C 1020.2 hPa ESE 9.7 km/h 9.7 km/h 67% 0 mm 0.00 W/m2
04:11 6.7 °C 1 °C 1020.2 hPa Calm   14.5 km/h 67% 0 mm 0.00 W/m2
04:21 6.7 °C 1.2 °C 1020.2 hPa Calm   11.3 km/h 68% 0 mm 0.00 W/m2
04:26 6.7 °C 1 °C 1020.2 hPa Calm   9.7 km/h 67% 0 mm 0.00 W/m2
04:31 6.7 °C 0.8 °C 1020.5 hPa Calm   6.4 km/h 66% 0 mm 0.00 W/m2
04:36 6.7 °C 0.8 °C 1020.5 hPa East 6.4 km/h 6.4 km/h 66% 0 mm 0.00 W/m2
04:41 6.7 °C 1.2 °C 1020.2 hPa Calm   14.5 km/h 68% 0 mm 0.00 W/m2
04:51 6.6 °C 1.1 °C 1020.2 hPa Calm   12.9 km/h 68% 0 mm 0.00 W/m2
04:56 6.6 °C 1.1 °C 1020.2 hPa Calm   12.9 km/h 68% 0 mm 0.00 W/m2
05:01 6.6 °C 1.3 °C 1020.2 hPa East 1.6 km/h 8 km/h 69% 0 mm 0.00 W/m2
05:06 6.5 °C 1 °C 1020.5 hPa Calm   9.7 km/h 68% 0 mm 0.00 W/m2
05:16 6.4 °C 1.2 °C 1020.5 hPa Calm     69% 0 mm 0.00 W/m2
05:21 6.4 °C 1 °C 1020.5 hPa East 6.4 km/h 11.3 km/h 68% 0 mm 0.00 W/m2
05:26 6.4 °C 1.1 °C 1020.2 hPa ESE 8 km/h 12.9 km/h 69% 0 mm 0.00 W/m2
05:36 6.3 °C 0.9 °C 1020.2 hPa Calm     68% 0 mm 0.00 W/m2
05:43 6.3 °C 0.8 °C 1020.5 hPa East 9.7 km/h 9.7 km/h 68% 0 mm 0.00 W/m2
05:53 6.2 °C 0.9 °C 1020.2 hPa Calm   11.3 km/h 69% 0 mm 0.00 W/m2
05:58 6.2 °C 0.9 °C 1020.5 hPa Calm   8 km/h 69% 0 mm 0.00 W/m2
06:08 6.1 °C 0.8 °C 1020.5 hPa East 9.7 km/h 17.7 km/h 69% 0 mm 0.00 W/m2
06:13 6 °C 0.7 °C 1020.5 hPa Calm   11.3 km/h 69% 0 mm 0.00 W/m2
06:18 6 °C 0.6 °C 1020.5 hPa Calm   12.9 km/h 68% 0 mm 0.00 W/m2
06:23 5.9 °C 0.7 °C 1020.5 hPa Calm   12.9 km/h 69% 0 mm 0.00 W/m2
06:33 5.9 °C 0.9 °C 1020.5 hPa ESE 8 km/h 11.3 km/h 70% 0 mm 0.00 W/m2
06:38 5.9 °C 0.7 °C 1020.5 hPa Calm   12.9 km/h 69% 0 mm 0.00 W/m2
06:43 5.8 °C 0.8 °C 1020.5 hPa Calm   12.9 km/h 70% 0 mm 0.00 W/m2
06:48 5.8 °C 0.6 °C 1020.5 hPa Calm   12.9 km/h 69% 0 mm 0.00 W/m2
06:58 5.8 °C 0.7 °C 1020.5 hPa ESE 1.6 km/h 9.7 km/h 70% 0 mm 5.00 W/m2
07:03 5.8 °C 0.7 °C 1020.5 hPa Calm   14.5 km/h 70% 0 mm 5.00 W/m2
07:08 5.7 °C 0.7 °C 1020.5 hPa Calm   14.5 km/h 70% 0 mm 7.00 W/m2
07:13 5.7 °C 0.7 °C 1020.5 hPa East 9.7 km/h 14.5 km/h 70% 0 mm 11.00 W/m2
07:18 5.7 °C 0.6 °C 1020.5 hPa ESE 6.4 km/h 12.9 km/h 70% 0 mm 16.00 W/m2
07:33 5.7 °C 0.3 °C 1020.9 hPa Calm   14.5 km/h 68% 0 mm 37.00 W/m2
07:38 5.8 °C 0.7 °C 1020.9 hPa ESE 1.6 km/h 11.3 km/h 70% 0 mm 49.00 W/m2
07:43 5.8 °C 0.6 °C 1020.9 hPa Calm   14.5 km/h 69% 0 mm 69.00 W/m2
07:48 5.8 °C 0.4 °C 1020.9 hPa ESE 6.4 km/h 9.7 km/h 68% 0 mm 72.00 W/m2
07:53 5.9 °C 0.4 °C 1020.9 hPa Calm   9.7 km/h 68% 0 mm 90.00 W/m2
08:03 5.9 °C 0.7 °C 1020.5 hPa Calm   20.9 km/h 69% 0 mm 95.00 W/m2
08:04 5.9 °C 0.7 °C 1020.5 hPa ESE 1.6 km/h 20.9 km/h 69% 0 mm 95.00 W/m2
08:14 6 °C 1.2 °C 1020.9 hPa Calm   12.9 km/h 71% 0 mm 139.00 W/m2
08:19 6.1 °C 1 °C 1020.9 hPa Calm   11.3 km/h 70% 0 mm 160.00 W/m2
08:24 6.1 °C 1.2 °C 1020.9 hPa Calm   9.7 km/h 71% 0 mm 176.00 W/m2
08:29 6.1 °C 1.2 °C 1020.9 hPa ESE 1.6 km/h 11.3 km/h 71% 0 mm 190.00 W/m2
08:34 6.2 °C 1.2 °C 1021.2 hPa Calm   11.3 km/h 70% 0 mm 213.00 W/m2
08:39 6.3 °C 1.4 °C 1020.9 hPa Calm   8 km/h 71% 0 mm 232.00 W/m2
08:49 6.4 °C 1.8 °C 1021.2 hPa Calm   8 km/h 72% 0 mm 269.00 W/m2
08:54 6.6 °C 2.1 °C 1021.2 hPa Calm   8 km/h 73% 0 mm 271.00 W/m2
08:59 6.7 °C 1.8 °C 1021.2 hPa Calm   3.2 km/h 71% 0 mm 301.00 W/m2
09:04 6.8 °C 2.2 °C 1021.2 hPa Calm   6.4 km/h 72% 0 mm 318.00 W/m2
09:09 6.9 °C 2.4 °C 1021.2 hPa Calm   1.6 km/h 73% 0 mm 285.00 W/m2
09:19 7.2 °C 2.3 °C 1021.6 hPa Calm     71% 0 mm 345.00 W/m2
09:24 7.4 °C 2.5 °C 1021.6 hPa Calm     71% 0 mm 308.00 W/m2
09:29 7.6 °C 3.1 °C 1021.2 hPa Calm   8 km/h 73% 0 mm 355.00 W/m2
09:34 7.8 °C 2.7 °C 1021.2 hPa Calm   9.7 km/h 70% 0 mm 390.00 W/m2
09:39 8 °C 2.9 °C 1021.2 hPa ESE 3.2 km/h 9.7 km/h 70% 0 mm 378.00 W/m2
09:49 8.3 °C 2.6 °C 1021.2 hPa Calm   6.4 km/h 67% 0 mm 364.00 W/m2
09:54 8.5 °C 2.3 °C 1021.6 hPa Calm   6.4 km/h 65% 0 mm 434.00 W/m2
09:59 8.7 °C 3.3 °C 1021.6 hPa Calm     69% 0 mm 425.00 W/m2
10:09 9 °C 3.2 °C 1021.2 hPa ESE 1.6 km/h 6.4 km/h 67% 0 mm 431.00 W/m2
10:14 9.1 °C 2.9 °C 1021.6 hPa Calm     65% 0 mm 446.00 W/m2
10:20 9.3 °C 3.3 °C 1021.6 hPa Calm   3.2 km/h 66% 0 mm 431.00 W/m2
10:25 9.4 °C 3 °C 1021.2 hPa Calm   1.6 km/h 64% 0 mm 422.00 W/m2
10:35 9.8 °C 3.1 °C 1021.2 hPa Calm     63% 0 mm 399.00 W/m2
10:40 10 °C 3.9 °C 1021.2 hPa Calm   1.6 km/h 66% 0 mm 422.00 W/m2
10:45 10.1 °C 3.8 °C 1021.2 hPa Calm   6.4 km/h 65% 0 mm 492.00 W/m2
10:50 10.2 °C 3.7 °C 1021.2 hPa Calm     64% 0 mm 466.00 W/m2
10:54 10.3 °C 3.6 °C 1020.9 hPa Calm     63% 0 mm 471.00 W/m2
10:59 10.5 °C 4 °C 1020.9 hPa Calm     64% 0 mm 448.00 W/m2
11:04 10.7 °C 4.2 °C 1020.9 hPa Calm     64% 0 mm 450.00 W/m2
11:08 10.7 °C 4.2 °C 1020.9 hPa Calm     64% 0 mm 443.00 W/m2
11:13 10.8 °C 4.5 °C 1020.9 hPa Calm     65% 0 mm 403.00 W/m2
11:18 10.9 °C 4.6 °C 1020.9 hPa Calm     65% 0 mm 392.00 W/m2
11:23 11 °C 4.9 °C 1020.9 hPa Calm     66% 0 mm 424.00 W/m2
11:28 11.1 °C 4.9 °C 1020.9 hPa Calm     66% 0 mm 438.00 W/m2
11:33 11.1 °C 4.9 °C 1020.9 hPa Calm     66% 0 mm 473.00 W/m2
11:38 11.1 °C 4.7 °C 1020.5 hPa Calm     65% 0 mm 448.00 W/m2
11:48 11.1 °C 5.2 °C 1020.5 hPa Calm     67% 0 mm 431.00 W/m2
11:58 11.1 °C 4.3 °C 1020.2 hPa Calm   6.4 km/h 63% 0 mm 461.00 W/m2
12:08 11.2 °C 4.4 °C 1020.2 hPa Calm   1.6 km/h 63% 0 mm 503.00 W/m2
12:13 11.3 °C 4.5 °C 1020.2 hPa Calm   8 km/h 63% 0 mm 512.00 W/m2
12:18 11.4 °C 4.6 °C 1020.2 hPa Calm     63% 0 mm 443.00 W/m2
12:23 11.5 °C 4.7 °C 1020.2 hPa Calm   6.4 km/h 63% 0 mm 499.00 W/m2
12:28 11.6 °C 4.3 °C 1020.2 hPa Calm   9.7 km/h 61% 0 mm 388.00 W/m2
12:33 11.7 °C 4.9 °C 1020.2 hPa Calm   8 km/h 63% 0 mm 517.00 W/m2
12:38 11.8 °C 5.3 °C 1020.2 hPa SSE 3.2 km/h 12.9 km/h 64% 0 mm 497.00 W/m2
12:53 12.1 °C 5 °C 1019.9 hPa Calm   9.7 km/h 62% 0 mm 469.00 W/m2
12:58 12.2 °C 5.3 °C 1019.9 hPa SSW 1.6 km/h 8 km/h 63% 0 mm 452.00 W/m2
13:08 12.3 °C 5.7 °C 1019.5 hPa Calm   4.8 km/h 64% 0 mm 459.00 W/m2
13:13 12.3 °C 4.1 °C 1019.5 hPa Calm   4.8 km/h 57% 0 mm 464.00 W/m2
13:18 12.4 °C 5.4 °C 1019.5 hPa Calm   12.9 km/h 62% 0 mm 464.00 W/m2
13:29 12.5 °C 5.9 °C 1019.5 hPa SSE 6.4 km/h 6.4 km/h 64% 0 mm 413.00 W/m2
13:34 12.6 °C 5.5 °C 1019.5 hPa Calm     62% 0 mm 452.00 W/m2
13:44 12.6 °C 5.1 °C 1019.5 hPa SSE 6.4 km/h 6.4 km/h 60% 0 mm 399.00 W/m2
13:49 12.6 °C 5.6 °C 1019.5 hPa South 4.8 km/h 9.7 km/h 62% 0 mm 425.00 W/m2
13:54 12.6 °C 5.1 °C 1019.5 hPa Calm   6.4 km/h 60% 0 mm 404.00 W/m2
13:59 12.6 °C 5.1 °C 1019.2 hPa WSW 1.6 km/h 8 km/h 60% 0 mm 380.00 W/m2
14:09 12.6 °C 5.6 °C 1019.2 hPa Calm   11.3 km/h 62% 0 mm 327.00 W/m2
14:14 12.6 °C 6 °C 1019.2 hPa Calm   4.8 km/h 64% 0 mm 348.00 W/m2
14:19 12.6 °C 6.2 °C 1019.5 hPa Calm   3.2 km/h 65% 0 mm 330.00 W/m2
14:24 12.6 °C 6.4 °C 1019.2 hPa Calm     66% 0 mm 320.00 W/m2
14:29 12.5 °C 6.1 °C 1019.2 hPa Calm   9.7 km/h 65% 0 mm 295.00 W/m2
14:34 12.4 °C 6.5 °C 1019.2 hPa Calm     67% 0 mm 246.00 W/m2
14:39 12.3 °C 5.9 °C 1019.2 hPa Calm   6.4 km/h 65% 0 mm 213.00 W/m2
14:44 12.3 °C 6.1 °C 1019.2 hPa Calm     66% 0 mm 264.00 W/m2
14:49 12.2 °C 5.8 °C 1019.2 hPa Calm     65% 0 mm 234.00 W/m2
14:54 12.2 °C 6 °C 1019.5 hPa Calm   4.8 km/h 66% 0 mm 192.00 W/m2
14:59 12.1 °C 6.2 °C 1019.2 hPa Calm     67% 0 mm 234.00 W/m2
15:04 12.1 °C 6.3 °C 1019.5 hPa Calm   1.6 km/h 68% 0 mm 220.00 W/m2
15:09 12 °C 6.1 °C 1019.5 hPa Calm     67% 0 mm 204.00 W/m2
15:14 11.9 °C 6 °C 1019.5 hPa Calm     67% 0 mm 171.00 W/m2
15:29 11.8 °C 6.5 °C 1019.5 hPa Calm     70% 0 mm 132.00 W/m2
15:39 11.6 °C 6.5 °C 1019.5 hPa Calm     71% 0 mm 118.00 W/m2
15:49 11.3 °C 6.6 °C 1019.5 hPa Calm     73% 0 mm 100.00 W/m2
15:54 11.2 °C 6.8 °C 1019.5 hPa Calm     74% 0 mm 69.00 W/m2
15:59 11.1 °C 6.8 °C 1019.5 hPa Calm     75% 0 mm 74.00 W/m2
16:04 11 °C 6.6 °C 1019.5 hPa Calm     74% 0 mm 58.00 W/m2
16:09 10.9 °C 6.8 °C 1019.2 hPa Calm     76% 0 mm 47.00 W/m2
16:14 10.8 °C 6.7 °C 1019.2 hPa Calm     76% 0 mm 32.00 W/m2
16:24 10.6 °C 6.7 °C 1019.2 hPa Calm     77% 0 mm 19.00 W/m2
16:34 10.2 °C 6.7 °C 1019.2 hPa Calm     79% 0 mm 11.00 W/m2
16:45 9.9 °C 6.6 °C 1019.2 hPa Calm     80% 0 mm 0.00 W/m2
16:50 9.8 °C 6.7 °C 1019.2 hPa Calm     81% 0 mm 0.00 W/m2
16:55 9.6 °C 6.7 °C 1019.2 hPa Calm     82% 0 mm 0.00 W/m2
17:00 9.4 °C 6.5 °C 1019.2 hPa Calm     82% 0 mm 0.00 W/m2
17:10 9 °C 6.4 °C 1019.2 hPa Calm     84% 0 mm 0.00 W/m2
17:15 8.8 °C 6.3 °C 1019.2 hPa Calm     84% 0 mm 0.00 W/m2
17:20 8.7 °C 6.1 °C 1019.2 hPa Calm     84% 0 mm 0.00 W/m2
17:25 8.5 °C 6.1 °C 1019.5 hPa Calm     85% 0 mm 0.00 W/m2
17:30 8.4 °C 6.1 °C 1019.5 hPa Calm     85% 0 mm 0.00 W/m2
17:40 8.2 °C 5.8 °C 1019.2 hPa Calm     85% 0 mm 0.00 W/m2
17:50 8.1 °C 5.8 °C 1019.5 hPa Calm     86% 0 mm 0.00 W/m2
18:00 7.8 °C 5.7 °C 1019.5 hPa Calm     86% 0 mm 0.00 W/m2
18:05 7.8 °C 5.7 °C 1019.5 hPa Calm     87% 0 mm 0.00 W/m2
18:15 7.7 °C 5.8 °C 1019.5 hPa Calm     88% 0 mm 0.00 W/m2
18:20 7.6 °C 5.6 °C 1019.5 hPa Calm     87% 0 mm 0.00 W/m2
18:25 7.6 °C 5.6 °C 1019.5 hPa Calm     87% 0 mm 0.00 W/m2
18:30 7.6 °C 5.6 °C 1019.5 hPa Calm     87% 0 mm 0.00 W/m2
18:35 7.5 °C 5.7 °C 1019.5 hPa Calm     88% 0 mm 0.00 W/m2
18:40 7.5 °C 5.7 °C 1019.5 hPa Calm     88% 0 mm 0.00 W/m2
18:50 7.5 °C 5.7 °C 1019.5 hPa Calm     88% 0 mm 0.00 W/m2
18:55 7.4 °C 5.6 °C 1019.5 hPa Calm     88% 0 mm 0.00 W/m2
19:00 7.4 °C 5.6 °C 1019.5 hPa Calm     88% 0 mm 0.00 W/m2
19:05 7.4 °C 5.6 °C 1019.5 hPa ESE 9.7 km/h 9.7 km/h 88% 0 mm 0.00 W/m2
19:16 7.3 °C 5.5 °C 1019.5 hPa ESE 3.2 km/h 9.7 km/h 88% 0 mm 0.00 W/m2
19:19 7.3 °C 5.5 °C 1019.5 hPa Calm   12.9 km/h 88% 0 mm 0.00 W/m2
19:24 7.3 °C 5.4 °C 1019.2 hPa East 9.7 km/h 12.9 km/h 88% 0 mm 0.00 W/m2
19:30 7.3 °C 5.4 °C 1019.2 hPa East 6.4 km/h 14.5 km/h 88% 0 mm 0.00 W/m2
19:35 7.3 °C 5.5 °C 1019.2 hPa Calm   1.6 km/h 88% 0 mm 0.00 W/m2
19:45 7.4 °C 5.4 °C 1019.5 hPa Calm   1.6 km/h 87% 0 mm 0.00 W/m2
19:51 7.4 °C 5.4 °C 1019.5 hPa East 9.7 km/h 9.7 km/h 87% 0 mm 0.00 W/m2
19:56 7.4 °C 5.4 °C 1019.9 hPa East 6.4 km/h 8 km/h 87% 0 mm 0.00 W/m2
20:01 7.4 °C 5.4 °C 1019.5 hPa Calm     87% 0 mm 0.00 W/m2
20:06 7.3 °C 5.2 °C 1019.9 hPa Calm     86% 0 mm 0.00 W/m2
20:21 7.2 °C 5 °C 1019.9 hPa East 1.6 km/h 3.2 km/h 86% 0 mm 0.00 W/m2
20:31 7 °C 4.7 °C 1019.9 hPa Calm     85% 0 mm 0.00 W/m2
20:36 7 °C 4.7 °C 1019.9 hPa ESE 6.4 km/h 9.7 km/h 85% 0 mm 0.00 W/m2
20:41 6.9 °C 4.6 °C 1019.9 hPa ESE 8 km/h 8 km/h 85% 0 mm 0.00 W/m2
20:46 7 °C 4.7 °C 1019.9 hPa ESE 1.6 km/h 11.3 km/h 85% 0 mm 0.00 W/m2
20:51 7 °C 4.7 °C 1019.9 hPa East 1.6 km/h 9.7 km/h 85% 0 mm 0.00 W/m2
20:56 7.1 °C 4.6 °C 1019.9 hPa East 11.3 km/h 12.9 km/h 84% 0 mm 0.00 W/m2
21:01 7.1 °C 4.6 °C 1019.9 hPa East 3.2 km/h 11.3 km/h 84% 0 mm 0.00 W/m2
21:06 7.1 °C 4.4 °C 1019.9 hPa East 6.4 km/h 6.4 km/h 83% 0 mm 0.00 W/m2
21:11 7.1 °C 4.2 °C 1020.2 hPa East 8 km/h 14.5 km/h 82% 0 mm 0.00 W/m2
21:16 7.1 °C 4.2 °C 1019.9 hPa East 3.2 km/h 6.4 km/h 82% 0 mm 0.00 W/m2
21:21 7.1 °C 4 °C 1019.9 hPa East 11.3 km/h 11.3 km/h 81% 0 mm 0.00 W/m2
21:31 7.1 °C 3.7 °C 1019.9 hPa ESE 6.4 km/h 17.7 km/h 79% 0 mm 0.00 W/m2
21:36 7.1 °C 3.7 °C 1019.9 hPa Calm   17.7 km/h 79% 0 mm 0.00 W/m2
21:46 7.2 °C 3.4 °C 1019.5 hPa Calm   17.7 km/h 77% 0 mm 0.00 W/m2
21:51 7.2 °C 3.2 °C 1019.5 hPa ESE 6.4 km/h 20.9 km/h 76% 0 mm 0.00 W/m2
22:01 7.2 °C 3.1 °C 1019.5 hPa ESE 9.7 km/h 19.3 km/h 75% 0 mm 0.00 W/m2
22:06 7.2 °C 2.8 °C 1019.5 hPa ESE 17.7 km/h 17.7 km/h 74% 0 mm 0.00 W/m2
22:11 7.2 °C 2.7 °C 1019.5 hPa ESE 6.4 km/h 20.9 km/h 73% 0 mm 0.00 W/m2
22:16 7.2 °C 2.7 °C 1019.5 hPa Calm   12.9 km/h 73% 0 mm 0.00 W/m2
22:21 7.2 °C 2.8 °C 1019.5 hPa Calm   14.5 km/h 74% 0 mm 0.00 W/m2
22:26 7.1 °C 2.4 °C 1019.5 hPa East 14.5 km/h 19.3 km/h 72% 0 mm 0.00 W/m2
22:41 7.1 °C 2.2 °C 1019.5 hPa Calm   19.3 km/h 71% 0 mm 0.00 W/m2
22:47 7.1 °C 1.9 °C 1019.5 hPa ESE 11.3 km/h 11.3 km/h 70% 0 mm 0.00 W/m2
22:52 7 °C 1.9 °C 1019.5 hPa ESE 8 km/h 19.3 km/h 70% 0 mm 0.00 W/m2
22:57 7 °C 1.7 °C 1019.5 hPa ESE 22.5 km/h 22.5 km/h 69% 0 mm 0.00 W/m2
23:07 7 °C 1.5 °C 1019.5 hPa ESE 8 km/h 14.5 km/h 68% 0 mm 0.00 W/m2
23:12 7 °C 1.7 °C 1019.5 hPa Calm   19.3 km/h 69% 0 mm 0.00 W/m2
23:17 7 °C 1.5 °C 1019.5 hPa ESE 6.4 km/h 17.7 km/h 68% 0 mm 0.00 W/m2
23:27 6.9 °C 1.2 °C 1019.5 hPa ESE 24.1 km/h 24.1 km/h 67% 0 mm 0.00 W/m2
23:32 6.9 °C 1.1 °C 1019.5 hPa ESE 11.3 km/h 17.7 km/h 66% 0 mm 0.00 W/m2
23:37 6.9 °C 1.1 °C 1019.5 hPa ESE 6.4 km/h 25.7 km/h 66% 0 mm 0.00 W/m2
23:42 7 °C 1.1 °C 1019.5 hPa ESE 11.3 km/h 22.5 km/h 66% 0 mm 0.00 W/m2
23:47 7 °C 1.1 °C 1019.5 hPa ESE 14.5 km/h 20.9 km/h 66% 0 mm 0.00 W/m2
Foresthill Weather
 WU-history PHP script courtesy of   Juneau County Weather.
powered by Cumulus v1.9.3 (1059)
Ambient Weather VWS v14.00
Top Contact Website Map Copyright © 2007 - 2018 Foresthillweather.com Never base important decisions on this or any weather information obtained from the Internet